Time;durP1;ratioP1;P1;durP2;ratioP2;P2;SDS_P1;SDS_P2;PMS_P1;PMS_P2;Temp;Humidity;BMP_temperature;BMP_pressure;BME280_temperature;BME280_humidity;BME280_pressure;Samples;Min_cycle;Max_cycle;Signal;HPM_P1;HPM_P2
2021/03/10 00:01:19;;;;;;;66.75;37.88;;;;;;;6.93;60.90;94640.41;5050243;23;20163;-80
2021/03/10 00:03:44;;;;;;;60.00;37.60;;;;;;;6.82;61.67;94630.75;4928851;29;20091;-81
2021/03/10 00:06:10;;;;;;;60.78;35.63;;;;;;;6.81;61.75;94642.88;4928554;29;20031;-81
2021/03/10 00:08:36;;;;;;;57.80;36.28;;;;;;;6.80;61.88;94630.97;4916352;29;20511;-83
2021/03/10 00:11:01;;;;;;;69.95;41.33;;;;;;;6.74;62.23;94628.44;4899399;29;20031;-83
2021/03/10 00:13:26;;;;;;;75.00;43.55;;;;;;;6.88;62.88;94632.50;4914444;29;20051;-84
2021/03/10 00:15:52;;;;;;;83.43;48.85;;;;;;;6.84;62.93;94626.19;4907394;29;20036;-82
2021/03/10 00:18:17;;;;;;;97.10;58.20;;;;;;;6.80;63.05;94628.38;4939732;23;20044;-83
2021/03/10 00:20:43;;;;;;;120.90;61.85;;;;;;;6.76;62.80;94623.84;4959975;28;20428;-82
2021/03/10 00:23:08;;;;;;;51.63;32.65;;;;;;;6.61;59.89;94621.59;4930974;29;20043;-83
2021/03/10 00:25:34;;;;;;;69.57;35.80;;;;;;;6.66;61.41;94614.00;4942834;29;20056;-82
2021/03/10 00:27:59;;;;;;;43.03;26.08;;;;;;;6.45;59.24;94601.44;4935638;29;20476;-82
2021/03/10 00:30:25;;;;;;;33.83;21.38;;;;;;;6.06;59.34;94602.53;4924836;29;20040;-83
2021/03/10 00:32:50;;;;;;;30.70;21.25;;;;;;;6.04;60.13;94607.91;4928660;29;20400;-82
2021/03/10 00:35:16;;;;;;;34.63;19.75;;;;;;;5.89;60.29;94600.44;4938292;29;20139;-83
2021/03/10 00:37:42;;;;;;;40.17;21.95;;;;;;;5.85;60.40;94593.28;4940649;29;20020;-82
2021/03/10 00:40:07;;;;;;;31.83;19.90;;;;;;;5.71;60.82;94608.06;4938652;29;20059;-82
2021/03/10 00:42:33;;;;;;;36.30;20.88;;;;;;;5.68;61.96;94598.16;4963174;29;20035;-82
2021/03/10 00:45:01;;;;;;;37.83;21.33;;;;;;;5.61;62.20;94608.50;4964651;28;20051;-81
2021/03/10 00:47:27;;;;;;;36.25;21.35;;;;;;;5.46;62.05;94604.59;4951499;29;20040;-82
2021/03/10 00:49:52;;;;;;;38.03;22.20;;;;;;;5.39;62.55;94594.34;4962415;28;20070;-83
2021/03/10 00:52:18;;;;;;;41.97;23.67;;;;;;;5.39;62.67;94587.38;4940608;29;20028;-83
2021/03/10 00:54:43;;;;;;;36.47;22.55;;;;;;;5.49;61.96;94594.66;4927000;29;20419;-83
2021/03/10 00:57:09;;;;;;;35.28;22.45;;;;;;;5.40;62.18;94583.81;4936472;29;20067;-83
2021/03/10 00:59:35;;;;;;;35.10;23.27;;;;;;;5.23;62.78;94576.75;4943206;29;20095;-83
2021/03/10 01:02:00;;;;;;;42.47;23.23;;;;;;;5.36;62.56;94582.63;4913507;29;20063;-82
2021/03/10 01:04:26;;;;;;;35.15;21.98;;;;;;;5.48;62.43;94579.41;4933450;29;20484;-82
2021/03/10 01:06:51;;;;;;;37.72;23.02;;;;;;;5.55;62.60;94577.59;4945873;29;20397;-83
2021/03/10 01:09:17;;;;;;;34.15;23.48;;;;;;;5.65;62.76;94580.50;4951416;29;20056;-83
2021/03/10 01:11:43;;;;;;;39.35;22.90;;;;;;;5.66;62.55;94582.09;4915985;29;20043;-82
2021/03/10 01:14:08;;;;;;;41.20;25.10;;;;;;;5.38;63.37;94565.19;4931175;29;20036;-82
2021/03/10 01:16:34;;;;;;;43.70;24.20;;;;;;;5.40;63.36;94555.44;4930571;29;20425;-82
2021/03/10 01:18:59;;;;;;;39.88;25.30;;;;;;;5.45;63.54;94572.09;5770047;23;20020;-82
2021/03/10 01:21:25;;;;;;;45.45;24.30;;;;;;;5.39;63.99;94569.34;4964453;28;20078;-82
2021/03/10 01:23:51;;;;;;;40.95;26.13;;;;;;;5.37;63.58;94567.97;4964125;28;20035;-83
2021/03/10 01:26:16;;;;;;;36.42;23.90;;;;;;;5.38;64.25;94562.59;4960756;28;20065;-83
2021/03/10 01:28:42;;;;;;;35.92;24.45;;;;;;;5.43;64.17;94573.06;4927532;29;20035;-82
2021/03/10 01:31:07;;;;;;;39.65;24.98;;;;;;;5.55;63.57;94562.91;4964032;28;20023;-82
2021/03/10 01:33:33;;;;;;;40.58;26.02;;;;;;;5.52;64.21;94565.09;4944380;29;20039;-85
2021/03/10 01:35:58;;;;;;;41.97;26.80;;;;;;;5.39;64.62;94561.59;4943778;29;20406;-83
2021/03/10 01:38:24;;;;;;;45.22;27.42;;;;;;;5.27;65.51;94550.34;4943448;29;20024;-82
2021/03/10 01:40:49;;;;;;;56.20;27.50;;;;;;;5.30;65.53;94544.78;4928415;29;20038;-82
2021/03/10 01:43:15;;;;;;;41.13;28.20;;;;;;;5.05;66.23;94539.53;4960488;28;20043;-83
2021/03/10 01:45:40;;;;;;;44.03;27.17;;;;;;;4.99;67.83;94545.47;4962872;28;20419;-82
2021/03/10 01:48:07;;;;;;;52.90;30.70;;;;;;;4.92;67.30;94538.78;4921558;29;20027;-82
2021/03/10 01:50:32;;;;;;;52.53;29.55;;;;;;;4.96;68.08;94539.94;4954769;28;20035;-82
2021/03/10 01:52:58;;;;;;;44.72;28.23;;;;;;;5.03;67.71;94531.19;4955208;29;20031;-81
2021/03/10 01:55:24;;;;;;;53.67;31.25;;;;;;;5.01;67.58;94545.28;4952688;23;20084;-83
2021/03/10 01:57:50;;;;;;;45.05;28.83;;;;;;;5.09;67.82;94529.59;4906450;29;20128;-84
2021/03/10 02:00:15;;;;;;;40.53;28.55;;;;;;;5.15;68.19;94528.78;4913195;29;20036;-83
2021/03/10 02:02:42;;;;;;;47.95;30.33;;;;;;;5.32;67.36;94509.25;4914975;29;20481;-83
2021/03/10 02:05:08;;;;;;;47.15;31.00;;;;;;;5.41;67.24;94509.81;4931060;29;20040;-83
2021/03/10 02:07:46;;;;;;;45.22;29.23;;;;;;;5.41;66.72;94507.25;4914160;29;20511;-82
2021/03/10 02:10:40;;;;;;;48.65;29.92;;;;;;;5.03;67.88;94500.28;4899626;29;20047;-82
2021/03/10 02:13:15;;;;;;;46.53;29.95;;;;;;;4.85;68.40;94500.16;4923942;29;20032;-82
2021/03/10 02:16:13;;;;;;;57.70;32.67;;;;;;;4.72;68.97;94493.28;4918413;29;20037;-82
2021/03/10 02:18:46;;;;;;;50.88;31.42;;;;;;;4.74;69.22;94501.59;4921529;29;20044;-84
2021/03/10 02:21:32;;;;;;;46.97;31.98;;;;;;;4.67;69.61;94503.38;4896310;29;20063;-84
2021/03/10 02:24:35;;;;;;;55.50;32.70;;;;;;;4.57;70.08;94494.50;4920915;29;20051;-83
2021/03/10 02:27:31;;;;;;;;;;;;;;;4.67;70.12;94489.72;4912244;29;20650;-82
2021/03/10 02:30:09;;;;;;;49.40;32.08;;;;;;;4.63;70.29;94489.34;4918029;29;19967;-83
2021/03/10 02:32:37;;;;;;;54.90;33.45;;;;;;;4.47;70.81;94484.63;4910562;29;20040;-83
2021/03/10 02:35:04;;;;;;;51.70;33.28;;;;;;;4.36;71.56;94487.81;4929729;29;20543;-82
2021/03/10 02:37:29;;;;;;;55.20;32.40;;;;;;;4.46;71.27;94483.03;4928971;29;20039;-82
2021/03/10 02:39:55;;;;;;;50.60;33.63;;;;;;;4.52;71.70;94477.06;4915386;29;20040;-83
2021/03/10 02:42:20;;;;;;;54.03;33.92;;;;;;;4.70;70.71;94479.78;4913306;29;20048;-82
2021/03/10 02:44:45;;;;;;;51.38;32.67;;;;;;;4.63;71.47;94479.03;4934194;29;20138;-83
2021/03/10 02:49:38;;;;;;;62.30;36.15;;;;;;;4.56;71.10;94473.13;4966150;23;20036;-82
2021/03/10 02:52:04;;;;;;;54.08;32.33;;;;;;;4.66;70.94;94483.75;4948805;29;20038;-82
2021/03/10 02:54:29;;;;;;;60.05;34.10;;;;;;;4.87;70.30;94466.44;4916701;29;20036;-82
2021/03/10 02:56:55;;;;;;;47.55;32.35;;;;;;;4.83;70.30;94463.50;4905843;29;20044;-82
2021/03/10 02:59:21;;;;;;;50.80;32.85;;;;;;;4.81;70.12;94471.44;4912672;29;20032;-82
2021/03/10 03:01:47;;;;;;;57.10;32.63;;;;;;;4.61;70.96;94475.06;4927810;29;20040;-82
2021/03/10 03:04:12;;;;;;;54.28;34.10;;;;;;;4.62;71.23;94464.56;4904220;29;20103;-82
2021/03/10 03:06:38;;;;;;;58.05;35.22;;;;;;;4.65;70.98;94471.88;4927097;29;20036;-82
2021/03/10 03:09:05;;;;;;;56.78;35.05;;;;;;;4.59;71.47;94469.34;5481359;23;20413;-82
2021/03/10 03:11:31;;;;;;;52.53;34.17;;;;;;;4.66;71.59;94468.31;4944130;29;20032;-81
2021/03/10 03:13:56;;;;;;;53.05;35.10;;;;;;;4.64;71.44;94461.78;4944940;29;20047;-81
2021/03/10 03:16:24;;;;;;;55.90;35.00;;;;;;;4.74;71.21;94470.69;4936598;29;20043;-80
2021/03/10 03:18:49;;;;;;;55.97;34.75;;;;;;;4.75;71.22;94472.25;4934833;29;20043;-81
2021/03/10 03:21:15;;;;;;;54.42;34.15;;;;;;;4.60;71.50;94469.13;4904093;29;20078;-82
2021/03/10 03:23:40;;;;;;;51.20;34.53;;;;;;;4.73;70.95;94466.53;4936439;29;20067;-81
2021/03/10 03:26:06;;;;;;;55.45;34.65;;;;;;;4.85;70.57;94471.81;4921222;29;20032;-84
2021/03/10 03:28:31;;;;;;;57.80;35.67;;;;;;;4.63;71.76;94466.16;4907374;29;20035;-83
2021/03/10 03:30:58;;;;;;;64.43;35.90;;;;;;;4.66;71.94;94454.66;5032643;23;20475;31
2021/03/10 03:33:25;;;;;;;58.20;34.92;;;;;;;4.74;71.49;94475.84;4920710;29;20575;-82
2021/03/10 03:35:53;;;;;;;50.20;31.00;;;;;;;4.93;70.57;94469.00;4920339;29;20032;-84
2021/03/10 03:38:20;;;;;;;53.40;32.65;;;;;;;4.91;70.62;94452.97;4907604;29;20079;-84
2021/03/10 03:40:47;;;;;;;48.60;32.47;;;;;;;4.82;70.88;94460.13;4925056;29;20058;-83
2021/03/10 03:43:12;;;;;;;59.72;35.05;;;;;;;4.66;71.50;94468.31;4922020;29;20046;-83
2021/03/10 03:45:38;;;;;;;70.72;33.95;;;;;;;4.46;71.96;94455.50;4943970;29;20031;-83
2021/03/10 03:48:04;;;;;;;53.20;32.13;;;;;;;4.55;72.03;94466.38;4926276;29;20039;-84
2021/03/10 03:50:30;;;;;;;54.67;33.70;;;;;;;4.48;72.37;94465.59;4926378;29;20041;-83
2021/03/10 03:52:55;;;;;;;55.72;32.65;;;;;;;4.65;71.91;94456.44;4945049;23;20702;-83
2021/03/10 03:55:21;;;;;;;52.38;31.00;;;;;;;4.56;71.43;94473.13;4942273;29;20036;-82
2021/03/10 03:57:47;;;;;;;49.13;32.53;;;;;;;4.36;71.99;94455.13;4940297;29;20028;-83
2021/03/10 04:00:17;;;;;;;51.25;31.33;;;;;;;4.58;72.17;94463.41;4926537;29;20035;-83
2021/03/10 04:02:42;;;;;;;53.25;31.55;;;;;;;4.63;71.96;94447.34;4929806;29;20113;-83
2021/03/10 04:05:08;;;;;;;51.42;31.05;;;;;;;4.64;72.11;94456.63;4925640;29;20039;-84
2021/03/10 04:09:59;;;;;;;44.73;31.13;;;;;;;4.63;71.98;94449.91;5051589;23;20244;-83
2021/03/10 04:12:24;;;;;;;44.55;28.42;;;;;;;4.72;71.45;94452.06;4960798;29;20095;-84
2021/03/10 04:14:50;;;;;;;45.70;30.38;;;;;;;4.74;71.37;94455.22;4928213;29;20031;-83
2021/03/10 04:17:15;;;;;;;48.42;30.45;;;;;;;4.73;71.61;94448.50;4928652;29;20131;-84
2021/03/10 04:19:41;;;;;;;47.72;28.65;;;;;;;4.95;70.83;94445.63;4935683;29;20038;-83
2021/03/10 04:22:07;;;;;;;44.60;29.83;;;;;;;4.97;70.44;94435.91;4922623;29;20063;-83
2021/03/10 04:24:33;;;;;;;51.72;31.65;;;;;;;4.85;70.93;94434.94;4939756;29;20035;-82
2021/03/10 04:26:58;;;;;;;43.85;28.70;;;;;;;4.78;71.22;94422.91;4932523;29;20571;-84
2021/03/10 04:29:24;;;;;;;53.47;30.48;;;;;;;4.64;71.85;94429.09;4928410;23;20111;-84
2021/03/10 04:31:49;;;;;;;45.08;28.85;;;;;;;4.84;70.94;94434.16;5048581;23;20969;-85
2021/03/10 04:36:44;;;;;;;49.53;30.50;;;;;;;4.69;71.57;94434.41;5005833;23;20054;-83
2021/03/10 04:39:10;;;;;;;41.67;27.45;;;;;;;4.60;71.50;94433.09;4942105;29;20031;-83
2021/03/10 04:41:36;;;;;;;44.47;29.60;;;;;;;4.68;71.40;94419.97;4948201;29;20023;-82
2021/03/10 04:44:01;;;;;;;43.78;28.77;;;;;;;4.79;71.37;94446.88;5257649;23;20171;-81
2021/03/10 04:46:27;;;;;;;50.55;31.80;;;;;;;4.66;71.48;94436.63;4941743;28;20044;-79
2021/03/10 04:48:52;;;;;;;48.80;30.38;;;;;;;4.58;72.25;94431.72;4935282;29;20083;-84
2021/03/10 04:51:18;;;;;;;50.33;30.33;;;;;;;4.75;71.91;94435.41;4930880;29;20059;-80
2021/03/10 04:53:43;;;;;;;51.72;31.20;;;;;;;4.63;72.16;94427.53;4929562;29;20032;-79
2021/03/10 04:56:08;;;;;;;50.65;32.88;;;;;;;4.42;72.96;94430.38;4930833;29;20636;-80
2021/03/10 04:58:34;;;;;;;51.33;32.95;;;;;;;4.31;73.22;94425.84;4933676;29;20050;-83
2021/03/10 05:00:59;;;;;;;51.90;34.67;;;;;;;4.30;73.50;94425.06;4915931;29;20047;-83
2021/03/10 05:03:25;;;;;;;54.03;34.03;;;;;;;4.22;74.10;94426.06;4931447;29;20031;-82
2021/03/10 05:05:50;;;;;;;59.22;33.90;;;;;;;4.26;73.78;94429.03;4920231;29;20051;-83
2021/03/10 05:08:16;;;;;;;56.15;34.58;;;;;;;4.21;74.25;94423.69;4937455;29;20055;-82
2021/03/10 05:10:41;;;;;;;54.28;33.08;;;;;;;4.07;74.94;94428.09;4912249;29;20393;-81
2021/03/10 05:13:07;;;;;;;61.30;35.90;;;;;;;4.24;74.65;94422.50;4930495;29;20052;-83
2021/03/10 05:15:32;;;;;;;50.67;34.00;;;;;;;4.04;75.54;94418.19;4913718;29;20047;-79
2021/03/10 05:17:58;;;;;;;56.72;35.55;;;;;;;4.10;75.09;94426.91;5194078;23;20427;-84
2021/03/10 05:20:23;;;;;;;57.45;35.47;;;;;;;4.11;75.41;94423.31;4910342;29;20039;-81
2021/03/10 05:22:49;;;;;;;59.25;36.92;;;;;;;4.02;75.24;94409.88;4908977;29;20040;-81
2021/03/10 05:25:14;;;;;;;54.30;34.60;;;;;;;4.12;75.41;94430.06;5011723;23;20078;-80
2021/03/10 05:27:40;;;;;;;53.63;35.70;;;;;;;4.17;74.61;94418.16;4970478;28;20043;-80
2021/03/10 05:30:07;;;;;;;57.33;35.35;;;;;;;4.19;74.59;94423.09;4931158;28;20515;-80
2021/03/10 05:32:32;;;;;;;54.55;34.67;;;;;;;4.39;74.28;94420.47;4949619;28;20038;-80
2021/03/10 05:34:58;;;;;;;51.28;35.58;;;;;;;4.29;74.20;94436.34;4963025;28;20027;-81
2021/03/10 05:37:23;;;;;;;54.70;34.75;;;;;;;4.12;74.96;94425.69;4949119;28;20035;-81
2021/03/10 05:39:49;;;;;;;50.95;34.33;;;;;;;4.25;74.22;94413.81;4966961;28;20038;-80
2021/03/10 05:42:14;;;;;;;54.65;33.83;;;;;;;4.02;75.49;94420.16;4952029;28;20408;-79
2021/03/10 05:44:40;;;;;;;57.30;34.58;;;;;;;3.98;75.24;94411.28;4936492;28;20099;-81
2021/03/10 05:47:06;;;;;;;47.53;30.73;;;;;;;4.12;74.77;94412.03;4958629;28;20600;-80
2021/03/10 05:49:32;;;;;;;50.67;31.25;;;;;;;4.15;74.93;94415.00;4972449;28;20045;-80
2021/03/10 05:51:57;;;;;;;50.78;30.27;;;;;;;3.98;75.20;94403.56;4967856;28;20031;-81
2021/03/10 05:54:26;;;;;;;45.17;29.27;;;;;;;4.04;74.88;94417.38;4939212;28;20042;-80
2021/03/10 05:56:51;;;;;;;42.25;28.40;;;;;;;4.14;74.54;94418.56;4947169;28;20101;-81
2021/03/10 05:59:17;;;;;;;46.92;29.20;;;;;;;4.08;75.07;94413.44;4958065;28;20051;-80
2021/03/10 06:01:42;;;;;;;46.85;29.15;;;;;;;4.24;73.84;94422.50;4970197;28;20031;-81
2021/03/10 06:04:08;;;;;;;46.22;28.60;;;;;;;4.25;74.34;94413.81;4953769;28;20416;-81
2021/03/10 06:06:38;;;;;;;44.15;29.55;;;;;;;4.16;74.59;94416.56;5012232;23;20043;-82
2021/03/10 06:09:10;;;;;;;49.45;31.00;;;;;;;4.13;74.88;94426.50;4938910;29;20423;-82
2021/03/10 06:11:36;;;;;;;51.83;27.95;;;;;;;4.08;74.67;94421.16;4945715;29;20040;-81
2021/03/10 06:14:05;;;;;;;41.28;28.63;;;;;;;4.15;74.96;94427.88;4940310;23;20531;-81
2021/03/10 06:16:30;;;;;;;48.00;28.48;;;;;;;4.08;74.80;94419.38;4919109;29;20475;-82
2021/03/10 06:19:03;;;;;;;50.13;30.25;;;;;;;4.14;74.83;94417.78;4924031;29;20524;-82
2021/03/10 06:21:29;;;;;;;44.53;29.20;;;;;;;4.09;75.26;94426.09;4907127;29;20092;-81
2021/03/10 06:23:54;;;;;;;45.35;29.75;;;;;;;4.16;74.82;94415.78;4923481;29;20036;-81
2021/03/10 06:26:23;;;;;;;47.22;30.00;;;;;;;4.05;75.58;94424.91;4923259;29;20492;-82
2021/03/10 06:28:49;;;;;;;46.17;30.73;;;;;;;4.15;74.83;94415.00;4907190;29;20040;-81
2021/03/10 06:31:22;;;;;;;43.38;29.20;;;;;;;4.37;74.25;94407.81;4911844;29;20022;-81
2021/03/10 06:34:00;;;;;;;47.28;31.10;;;;;;;4.47;73.98;94404.81;4940645;28;20055;-81
2021/03/10 06:36:26;;;;;;;49.08;31.23;;;;;;;4.36;73.84;94420.88;4914838;29;20036;-82
2021/03/10 06:38:52;;;;;;;46.97;29.15;;;;;;;4.35;74.34;94419.28;4918980;29;20390;-82
2021/03/10 06:41:33;;;;;;;44.33;30.50;;;;;;;4.44;74.06;94412.94;4903731;29;20051;-82
2021/03/10 06:43:59;;;;;;;48.92;30.85;;;;;;;4.46;73.52;94421.25;4903671;29;20044;-81
2021/03/10 06:46:25;;;;;;;58.47;33.75;;;;;;;4.57;73.85;94412.91;4903176;29;20060;-82
2021/03/10 06:48:57;;;;;;;51.25;32.70;;;;;;;4.71;73.13;94409.25;4922102;29;20035;-82
2021/03/10 06:51:24;;;;;;;47.78;32.53;;;;;;;4.81;73.43;94413.97;4924728;29;20040;-82
2021/03/10 06:53:49;;;;;;;55.67;31.70;;;;;;;4.87;72.50;94417.50;4891855;29;20052;-82
2021/03/10 06:56:19;;;;;;;53.38;32.28;;;;;;;4.75;72.57;94430.25;4924007;29;20032;-81
2021/03/10 06:58:59;;;;;;;51.25;33.63;;;;;;;4.67;73.25;94433.84;4889774;29;20032;-81
2021/03/10 07:01:25;;;;;;;53.83;32.42;;;;;;;4.64;73.29;94439.41;4920725;29;20028;-81
2021/03/10 07:03:51;;;;;;;54.03;33.28;;;;;;;4.48;73.36;94439.84;4923411;29;20032;-81
2021/03/10 07:06:16;;;;;;;47.95;33.42;;;;;;;4.42;73.54;94445.81;4890885;29;20056;-81
2021/03/10 07:08:42;;;;;;;48.85;33.90;;;;;;;4.55;73.34;94448.34;4903409;29;20044;-81
2021/03/10 07:11:07;;;;;;;53.22;33.80;;;;;;;4.45;73.75;94455.72;4905169;29;20105;-84
2021/03/10 07:13:45;;;;;;;53.42;33.58;;;;;;;4.64;73.30;94448.91;4918554;29;20032;-83
2021/03/10 07:16:11;;;;;;;51.63;33.67;;;;;;;4.50;73.44;94463.63;4887539;29;20122;-81
2021/03/10 07:18:37;;;;;;;55.15;34.55;;;;;;;4.55;73.78;94452.69;4898727;29;20488;-81
2021/03/10 07:21:03;;;;;;;56.90;35.83;;;;;;;4.47;73.91;94459.66;4916695;29;20491;-82
2021/03/10 07:23:28;;;;;;;58.50;38.13;;;;;;;4.27;74.85;94455.56;4919532;29;20063;-82
2021/03/10 07:26:05;;;;;;;58.75;38.05;;;;;;;4.36;75.36;94446.63;4900612;29;20039;-81
2021/03/10 07:28:31;;;;;;;59.75;38.58;;;;;;;4.30;74.70;94457.72;4909980;29;20235;-81
2021/03/10 07:30:56;;;;;;;55.83;37.88;;;;;;;4.34;75.13;94451.19;4884558;29;20028;-82
2021/03/10 07:33:22;;;;;;;57.45;37.30;;;;;;;4.44;74.27;94461.84;4901538;29;20464;-81
2021/03/10 07:35:52;;;;;;;57.50;38.50;;;;;;;4.30;74.41;94447.44;4918910;29;20056;-82
2021/03/10 07:38:22;;;;;;;57.55;37.78;;;;;;;4.16;75.56;94455.19;4949297;23;20043;-81
2021/03/10 07:41:16;;;;;;;62.63;39.60;;;;;;;4.09;75.25;94446.69;4939499;29;20050;-81
2021/03/10 07:43:49;;;;;;;61.83;39.53;;;;;;;3.92;75.18;94453.25;4941830;29;20113;-81
2021/03/10 07:48:50;;;;;;;66.22;41.47;;;;;;;3.82;76.07;94450.25;4969753;23;20063;-79
2021/03/10 07:51:41;;;;;;;69.20;42.30;;;;;;;3.69;77.24;94434.84;4922814;29;20036;-78
2021/03/10 07:54:25;;;;;;;70.32;39.85;;;;;;;3.63;77.08;94436.44;4931844;29;20051;-81
2021/03/10 07:57:03;;;;;;;60.30;41.25;;;;;;;3.72;76.60;94444.72;4938122;29;20464;-80
2021/03/10 07:59:29;;;;;;;59.38;39.38;;;;;;;3.78;76.35;94434.44;4929995;29;20046;-80
2021/03/10 08:02:08;;;;;;;62.67;39.72;;;;;;;3.61;77.25;94431.50;4923715;29;20036;-81
2021/03/10 08:04:34;;;;;;;57.17;38.58;;;;;;;3.66;76.79;94435.25;4925434;29;20032;-80
2021/03/10 08:07:00;;;;;;;61.60;40.60;;;;;;;3.58;77.41;94434.47;4924852;29;20072;-81
2021/03/10 08:09:27;;;;;;;63.28;42.60;;;;;;;3.59;77.28;94446.31;4925905;29;20035;-80
2021/03/10 08:12:11;;;;;;;73.90;45.55;;;;;;;3.49;77.58;94440.78;4942309;29;20067;-81
2021/03/10 08:14:44;;;;;;;64.82;41.40;;;;;;;3.55;77.39;94439.97;4922977;29;20590;-81
2021/03/10 08:17:19;;;;;;;67.65;43.60;;;;;;;3.50;78.04;94421.78;4908965;29;20570;-81
2021/03/10 08:20:14;;;;;;;62.95;43.22;;;;;;;3.53;77.97;94426.53;4925789;29;20051;-81
2021/03/10 08:22:40;;;;;;;61.92;40.20;;;;;;;3.57;77.50;94427.72;4924524;29;20173;-82
2021/03/10 08:25:06;;;;;;;88.10;48.83;;;;;;;3.56;77.64;94415.84;4936448;29;20051;-80
2021/03/10 08:27:36;;;;;;;71.43;45.72;;;;;;;3.79;77.28;94420.59;4904226;29;20511;-82
2021/03/10 08:30:03;;;;;;;61.22;38.90;;;;;;;3.82;76.43;94419.41;4935961;29;20027;-81
2021/03/10 08:32:30;;;;;;;61.55;38.45;;;;;;;3.75;76.63;94416.06;4889603;29;20100;-80
2021/03/10 08:35:00;;;;;;;64.00;39.55;;;;;;;3.68;77.33;94415.25;4887665;29;20035;-82
2021/03/10 08:37:26;;;;;;;60.10;40.15;;;;;;;3.64;77.46;94414.88;4905006;29;20106;-80
2021/03/10 08:39:51;;;;;;;63.65;41.95;;;;;;;3.73;77.06;94412.88;4936786;29;20495;-80
2021/03/10 08:42:21;;;;;;;60.88;40.42;;;;;;;3.80;77.16;94421.38;4903813;29;20039;-81
2021/03/10 08:44:47;;;;;;;62.00;38.92;;;;;;;3.70;76.56;94411.50;4919848;29;20488;-79
2021/03/10 08:47:20;;;;;;;66.03;41.63;;;;;;;3.60;77.13;94419.63;4919607;29;20095;-82
2021/03/10 08:49:52;;;;;;;65.68;40.15;;;;;;;3.66;77.38;94422.38;4905324;29;20055;-82
2021/03/10 08:52:18;;;;;;;69.22;42.72;;;;;;;3.68;77.34;94428.13;4917941;29;20028;-82
2021/03/10 08:54:44;;;;;;;61.40;38.83;;;;;;;3.68;77.44;94428.13;4919989;29;20091;-82
2021/03/10 08:57:10;;;;;;;61.53;41.85;;;;;;;3.79;76.75;94435.25;4935774;29;20102;-82
2021/03/10 08:59:35;;;;;;;65.35;40.80;;;;;;;3.83;77.07;94431.28;4904365;29;20047;-81
2021/03/10 09:02:01;;;;;;;55.78;36.78;;;;;;;3.86;76.28;94433.44;4936836;29;20099;-81
2021/03/10 09:04:27;;;;;;;56.80;38.22;;;;;;;3.96;76.44;94433.84;4887699;29;20048;-82
2021/03/10 09:06:53;;;;;;;58.05;37.85;;;;;;;4.03;76.10;94432.03;4920287;29;20031;-82
2021/03/10 09:09:19;;;;;;;57.35;38.53;;;;;;;3.91;76.35;94429.31;4936249;29;20040;-81
2021/03/10 09:11:44;;;;;;;61.40;39.88;;;;;;;3.87;77.13;94425.53;4908201;28;20071;-81
2021/03/10 09:14:11;;;;;;;62.72;40.20;;;;;;;4.03;76.74;94426.88;4922902;29;20027;-79
2021/03/10 09:16:36;;;;;;;67.80;40.30;;;;;;;4.07;76.39;94433.25;4902669;29;20056;-79
2021/03/10 09:19:02;;;;;;;53.42;34.65;;;;;;;3.98;76.05;94431.84;4948718;29;20039;-79
2021/03/10 09:21:40;;;;;;;66.32;40.38;;;;;;;4.19;76.70;94428.25;4930529;29;20043;-79
2021/03/10 09:24:06;;;;;;;56.05;35.97;;;;;;;4.27;75.60;94433.19;4928827;29;20099;-80
2021/03/10 09:26:38;;;;;;;58.28;37.47;;;;;;;3.99;76.24;94436.00;4907044;29;20076;-82
2021/03/10 09:29:04;;;;;;;66.30;42.65;;;;;;;3.74;77.55;94447.88;4937201;29;20024;-81
2021/03/10 09:31:29;;;;;;;83.30;49.63;;;;;;;3.91;77.86;94443.94;4920589;29;20582;-81
2021/03/10 09:34:05;;;;;;;65.90;41.15;;;;;;;4.18;76.39;94453.19;4889394;29;20032;-82
2021/03/10 09:36:31;;;;;;;86.18;49.60;;;;;;;4.13;76.19;94442.72;4938307;29;20032;-81
2021/03/10 09:38:56;;;;;;;52.28;36.30;;;;;;;4.07;76.08;94438.38;4936034;29;20035;-81
2021/03/10 09:41:23;;;;;;;51.67;36.13;;;;;;;4.13;76.08;94434.19;4905218;29;20092;-82
2021/03/10 09:43:59;;;;;;;58.47;38.58;;;;;;;4.09;76.53;94436.41;4890910;29;20478;-81
2021/03/10 09:46:24;;;;;;;54.90;35.50;;;;;;;3.96;76.80;94445.91;4923351;29;20036;-81
2021/03/10 09:48:50;;;;;;;49.25;34.80;;;;;;;3.94;76.81;94433.25;4923108;29;20039;-82
2021/03/10 09:51:16;;;;;;;51.15;34.60;;;;;;;4.18;76.25;94445.47;4892970;29;20035;-82
2021/03/10 09:53:47;;;;;;;49.72;34.25;;;;;;;4.02;76.08;94424.53;4908235;29;20428;-82
2021/03/10 09:56:14;;;;;;;46.25;33.63;;;;;;;3.82;77.14;94429.69;4921071;29;20379;-80
2021/03/10 09:58:49;;;;;;;50.42;35.50;;;;;;;3.74;76.91;94432.44;4907258;29;20032;-82
2021/03/10 10:01:15;;;;;;;54.17;35.40;;;;;;;3.83;76.58;94421.78;4908675;29;20028;-81
2021/03/10 10:03:40;;;;;;;63.90;37.50;;;;;;;3.80;76.93;94421.38;4926614;29;20043;-82
2021/03/10 10:06:09;;;;;;;51.65;35.22;;;;;;;3.83;77.10;94431.28;4940837;29;20043;-81
2021/03/10 10:08:35;;;;;;;49.78;33.25;;;;;;;3.85;76.80;94437.78;4923313;29;20043;-82
2021/03/10 10:11:02;;;;;;;50.10;33.83;;;;;;;3.87;76.89;94429.88;4909136;29;20028;-82
2021/03/10 10:13:28;;;;;;;51.67;33.42;;;;;;;3.93;76.74;94431.66;4915396;29;20122;-80
2021/03/10 10:15:53;;;;;;;53.38;35.65;;;;;;;3.92;76.79;94435.22;4944237;28;20040;-81
2021/03/10 10:18:24;;;;;;;52.65;35.45;;;;;;;4.11;76.87;94431.84;4924772;29;20039;-81
2021/03/10 10:20:50;;;;;;;55.53;34.30;;;;;;;4.01;76.62;94434.03;4947666;29;20047;-81
2021/03/10 10:23:25;;;;;;;48.45;33.25;;;;;;;4.13;76.21;94442.72;4949688;29;20024;-80
2021/03/10 10:25:50;;;;;;;53.95;33.33;;;;;;;4.12;75.67;94435.19;4922194;29;20095;-82
2021/03/10 10:31:29;;;;;;;52.72;32.65;;;;;;;3.97;76.37;94422.56;4915570;29;20024;-80
2021/03/10 10:33:55;;;;;;;49.53;31.92;;;;;;;4.09;76.42;94425.31;4927401;29;20575;-81
2021/03/10 10:36:20;;;;;;;43.28;30.00;;;;;;;4.10;76.92;94440.56;4906153;29;20032;-82
2021/03/10 10:38:46;;;;;;;36.05;27.73;;;;;;;3.89;76.88;94438.19;4938677;29;20043;-82
2021/03/10 10:41:11;;;;;;;40.72;28.65;;;;;;;3.99;77.12;94446.28;4919872;29;20116;-81
2021/03/10 10:43:37;;;;;;;42.42;26.67;;;;;;;4.18;76.53;94440.31;4939760;29;20038;-80
2021/03/10 10:46:03;;;;;;;29.33;21.70;;;;;;;3.95;76.26;94442.53;4932116;29;20058;-81
2021/03/10 10:48:32;;;;;;;39.88;23.27;;;;;;;3.94;76.33;94433.25;4929178;29;20404;-81
2021/03/10 10:50:57;;;;;;;33.53;19.83;;;;;;;3.96;76.24;94436.41;4920210;29;20316;-80
2021/03/10 10:53:23;;;;;;;23.38;17.17;;;;;;;4.09;75.37;94436.41;4939154;29;20086;-81
2021/03/10 10:55:48;;;;;;;21.27;13.88;;;;;;;4.01;75.42;94436.59;4920408;29;20038;-80
2021/03/10 10:58:14;;;;;;;22.85;14.80;;;;;;;3.98;74.63;94437.00;4918981;29;20393;-81
2021/03/10 11:00:39;;;;;;;20.35;12.35;;;;;;;3.88;74.52;94441.75;4936990;29;20533;-81
2021/03/10 11:03:04;;;;;;;19.35;12.73;;;;;;;3.74;75.38;94432.44;4937096;29;20036;-80
2021/03/10 11:05:30;;;;;;;19.48;10.98;;;;;;;3.80;74.51;94436.81;4922501;29;20086;-81
2021/03/10 11:07:55;;;;;;;17.52;11.90;;;;;;;3.82;74.45;94435.63;5010119;23;20054;-80
2021/03/10 11:10:21;;;;;;;18.63;10.30;;;;;;;3.73;73.54;94436.00;4947773;29;20050;-82
2021/03/10 11:12:47;;;;;;;14.00;10.05;;;;;;;3.70;73.10;94432.06;4916258;29;20062;-82
2021/03/10 11:15:12;;;;;;;16.13;11.02;;;;;;;3.57;74.55;94432.84;4942146;29;20118;-80
2021/03/10 11:17:38;;;;;;;18.48;11.23;;;;;;;3.35;74.62;94436.59;4949133;29;20032;-81
2021/03/10 11:20:05;;;;;;;13.35;10.05;;;;;;;3.32;74.78;94431.84;4929575;29;20566;-81
2021/03/10 11:25:09;;;;;;;14.50;10.57;;;;;;;2.90;77.09;94445.78;5474729;23;20052;-82
2021/03/10 11:27:36;;;;;;;12.30;9.80;;;;;;;2.99;77.66;94435.16;4917942;29;20033;-82
2021/03/10 11:30:03;;;;;;;12.00;9.27;;;;;;;3.04;76.03;94442.28;4899365;29;20159;-82
2021/03/10 11:32:29;;;;;;;17.67;11.80;;;;;;;2.90;77.04;94431.16;4900374;29;20080;-82
2021/03/10 11:34:54;;;;;;;14.95;11.40;;;;;;;2.78;77.61;94427.59;4870368;29;20489;-82
2021/03/10 11:37:20;;;;;;;18.67;10.82;;;;;;;2.90;77.40;94423.47;4877619;29;20032;-82
2021/03/10 11:39:45;;;;;;;14.63;10.57;;;;;;;3.07;76.38;94418.75;4892906;29;20063;-81
2021/03/10 11:42:10;;;;;;;13.75;10.00;;;;;;;3.09;75.96;94423.72;4862346;29;20032;-81
2021/03/10 11:44:36;;;;;;;12.57;9.43;;;;;;;3.27;76.08;94416.25;4865363;29;20036;-82